sensor_id;sensor_type;location;lat;lon;timestamp;noise_LAeq;noise_LA_min;noise_LA_max;noise_LA01;noise_LA95
45478;Laerm;31227;47.986;11.868;2023-03-14T00:01:31;39.01;36.45;41.06;;
45478;Laerm;31227;47.986;11.868;2023-03-14T00:03:56;39.25;36.20;44.15;;
45478;Laerm;31227;47.986;11.868;2023-03-14T00:06:21;38.96;35.94;41.06;;
45478;Laerm;31227;47.986;11.868;2023-03-14T00:08:46;38.90;36.45;40.71;;
45478;Laerm;31227;47.986;11.868;2023-03-14T00:11:13;38.87;36.45;40.89;;
45478;Laerm;31227;47.986;11.868;2023-03-14T00:13:39;38.85;35.66;40.80;;
45478;Laerm;31227;47.986;11.868;2023-03-14T00:16:09;38.79;36.20;40.80;;
45478;Laerm;31227;47.986;11.868;2023-03-14T00:18:35;38.77;35.66;40.80;;
45478;Laerm;31227;47.986;11.868;2023-03-14T00:21:01;38.75;35.66;40.71;;
45478;Laerm;31227;47.986;11.868;2023-03-14T00:23:27;38.72;36.20;41.22;;
45478;Laerm;31227;47.986;11.868;2023-03-14T00:25:53;38.72;35.94;40.89;;
45478;Laerm;31227;47.986;11.868;2023-03-14T00:28:18;38.70;35.94;40.71;;
45478;Laerm;31227;47.986;11.868;2023-03-14T00:30:43;38.77;35.94;42.82;;
45478;Laerm;31227;47.986;11.868;2023-03-14T00:33:08;38.71;35.94;41.14;;
45478;Laerm;31227;47.986;11.868;2023-03-14T00:35:33;38.64;35.36;40.71;;
45478;Laerm;31227;47.986;11.868;2023-03-14T00:37:59;38.62;35.94;40.62;;
45478;Laerm;31227;47.986;11.868;2023-03-14T00:40:24;38.64;35.66;40.43;;
45478;Laerm;31227;47.986;11.868;2023-03-14T00:42:49;38.64;35.94;40.53;;
45478;Laerm;31227;47.986;11.868;2023-03-14T00:45:14;38.60;35.94;40.63;;
45478;Laerm;31227;47.986;11.868;2023-03-14T00:47:40;38.61;35.94;40.71;;
45478;Laerm;31227;47.986;11.868;2023-03-14T00:50:05;38.66;36.20;41.68;;
45478;Laerm;31227;47.986;11.868;2023-03-14T00:52:30;38.61;35.94;40.80;;
45478;Laerm;31227;47.986;11.868;2023-03-14T00:54:56;38.78;36.20;42.53;;
45478;Laerm;31227;47.986;11.868;2023-03-14T00:57:21;38.57;35.66;40.71;;
45478;Laerm;31227;47.986;11.868;2023-03-14T00:59:46;38.64;36.20;42.35;;
45478;Laerm;31227;47.986;11.868;2023-03-14T01:02:11;38.66;35.94;41.30;;
45478;Laerm;31227;47.986;11.868;2023-03-14T01:04:36;38.80;36.20;43.54;;
45478;Laerm;31227;47.986;11.868;2023-03-14T01:07:04;38.60;35.94;41.14;;
45478;Laerm;31227;47.986;11.868;2023-03-14T01:09:29;38.70;35.66;43.34;;
45478;Laerm;31227;47.986;11.868;2023-03-14T01:11:54;38.57;35.94;40.33;;
45478;Laerm;31227;47.986;11.868;2023-03-14T01:14:19;38.52;36.20;40.80;;
45478;Laerm;31227;47.986;11.868;2023-03-14T01:16:45;38.56;35.66;40.80;;
45478;Laerm;31227;47.986;11.868;2023-03-14T01:19:10;38.58;36.20;40.98;;
45478;Laerm;31227;47.986;11.868;2023-03-14T01:21:35;38.60;35.94;40.80;;
45478;Laerm;31227;47.986;11.868;2023-03-14T01:24:01;38.64;36.20;40.98;;
45478;Laerm;31227;47.986;11.868;2023-03-14T01:26:28;38.68;35.94;40.53;;
45478;Laerm;31227;47.986;11.868;2023-03-14T01:28:54;38.65;35.94;40.80;;
45478;Laerm;31227;47.986;11.868;2023-03-14T01:31:20;38.79;35.94;42.03;;
45478;Laerm;31227;47.986;11.868;2023-03-14T01:33:45;38.81;35.94;40.98;;
45478;Laerm;31227;47.986;11.868;2023-03-14T01:36:10;38.93;35.94;44.94;;
45478;Laerm;31227;47.986;11.868;2023-03-14T01:38:36;38.81;36.45;40.98;;
45478;Laerm;31227;47.986;11.868;2023-03-14T01:41:02;39.02;35.94;43.90;;
45478;Laerm;31227;47.986;11.868;2023-03-14T01:43:28;38.78;36.20;41.06;;
45478;Laerm;31227;47.986;11.868;2023-03-14T01:48:18;38.80;36.20;42.47;;
45478;Laerm;31227;47.986;11.868;2023-03-14T01:50:44;38.92;36.20;45.23;;
45478;Laerm;31227;47.986;11.868;2023-03-14T01:53:09;38.69;35.94;42.82;;
45478;Laerm;31227;47.986;11.868;2023-03-14T01:55:34;38.58;36.20;40.80;;
45478;Laerm;31227;47.986;11.868;2023-03-14T01:58:02;38.59;35.66;40.89;;
45478;Laerm;31227;47.986;11.868;2023-03-14T02:00:28;38.62;35.66;40.80;;
45478;Laerm;31227;47.986;11.868;2023-03-14T02:02:55;38.69;35.94;41.14;;
45478;Laerm;31227;47.986;11.868;2023-03-14T02:05:21;38.69;35.94;41.38;;
45478;Laerm;31227;47.986;11.868;2023-03-14T02:07:55;38.64;35.94;47.48;;
45478;Laerm;31227;47.986;11.868;2023-03-14T02:10:21;43.71;35.94;74.22;;
45478;Laerm;31227;47.986;11.868;2023-03-14T02:12:48;44.51;37.70;52.66;;
45478;Laerm;31227;47.986;11.868;2023-03-14T02:15:14;43.41;33.44;52.66;;
45478;Laerm;31227;47.986;11.868;2023-03-14T02:17:40;43.28;36.91;51.37;;
45478;Laerm;31227;47.986;11.868;2023-03-14T02:22:33;43.09;36.69;52.61;;
45478;Laerm;31227;47.986;11.868;2023-03-14T02:25:20;41.38;37.32;53.96;;
45478;Laerm;31227;47.986;11.868;2023-03-14T02:27:49;45.15;37.12;79.77;;
45478;Laerm;31227;47.986;11.868;2023-03-14T02:30:16;40.41;36.91;68.23;;
45478;Laerm;31227;47.986;11.868;2023-03-14T02:32:43;39.65;37.12;56.03;;
45478;Laerm;31227;47.986;11.868;2023-03-14T02:35:11;39.81;35.66;53.83;;
45478;Laerm;31227;47.986;11.868;2023-03-14T02:37:39;39.64;36.45;43.90;;
45478;Laerm;31227;47.986;11.868;2023-03-14T02:40:06;39.76;36.45;49.95;;
45478;Laerm;31227;47.986;11.868;2023-03-14T02:42:31;40.98;37.12;45.42;;
45478;Laerm;31227;47.986;11.868;2023-03-14T02:45:22;40.55;36.69;48.70;;
45478;Laerm;31227;47.986;11.868;2023-03-14T02:47:43;40.08;37.12;44.58;;
45478;Laerm;31227;47.986;11.868;2023-03-14T02:50:11;39.63;36.91;43.86;;
45478;Laerm;31227;47.986;11.868;2023-03-14T02:52:37;39.37;37.12;43.04;;
45478;Laerm;31227;47.986;11.868;2023-03-14T02:55:03;39.26;36.45;43.09;;
45478;Laerm;31227;47.986;11.868;2023-03-14T02:57:28;39.24;36.45;43.09;;
45478;Laerm;31227;47.986;11.868;2023-03-14T02:59:57;39.24;36.69;44.03;;
45478;Laerm;31227;47.986;11.868;2023-03-14T03:02:23;39.67;36.91;44.58;;
45478;Laerm;31227;47.986;11.868;2023-03-14T03:04:48;39.52;37.32;47.88;;
45478;Laerm;31227;47.986;11.868;2023-03-14T03:07:13;39.31;37.32;43.63;;
45478;Laerm;31227;47.986;11.868;2023-03-14T03:09:39;39.18;36.20;42.98;;
45478;Laerm;31227;47.986;11.868;2023-03-14T03:12:04;39.20;36.69;42.29;;
45478;Laerm;31227;47.986;11.868;2023-03-14T03:19:39;39.51;36.91;46.78;;
45478;Laerm;31227;47.986;11.868;2023-03-14T03:22:16;39.54;37.12;52.61;;
45478;Laerm;31227;47.986;11.868;2023-03-14T03:24:44;39.09;37.12;42.71;;
45478;Laerm;31227;47.986;11.868;2023-03-14T03:27:12;39.08;36.45;44.03;;
45478;Laerm;31227;47.986;11.868;2023-03-14T03:29:38;39.10;36.69;43.63;;
45478;Laerm;31227;47.986;11.868;2023-03-14T03:32:03;39.14;36.69;48.92;;
45478;Laerm;31227;47.986;11.868;2023-03-14T03:34:28;39.07;36.69;42.29;;
45478;Laerm;31227;47.986;11.868;2023-03-14T03:36:55;39.21;37.12;44.65;;
45478;Laerm;31227;47.986;11.868;2023-03-14T03:39:21;39.48;36.69;44.76;;
45478;Laerm;31227;47.986;11.868;2023-03-14T03:41:46;39.57;37.12;45.04;;
45478;Laerm;31227;47.986;11.868;2023-03-14T03:44:11;39.15;36.91;43.58;;
45478;Laerm;31227;47.986;11.868;2023-03-14T03:46:37;39.01;36.69;41.14;;
45478;Laerm;31227;47.986;11.868;2023-03-14T03:49:02;39.15;36.91;43.04;;
45478;Laerm;31227;47.986;11.868;2023-03-14T03:51:28;39.17;37.32;42.29;;
45478;Laerm;31227;47.986;11.868;2023-03-14T03:53:53;39.06;36.91;41.75;;
45478;Laerm;31227;47.986;11.868;2023-03-14T03:56:18;39.40;37.12;42.09;;
45478;Laerm;31227;47.986;11.868;2023-03-14T03:58:43;39.29;37.12;43.09;;
45478;Laerm;31227;47.986;11.868;2023-03-14T04:01:09;39.07;36.20;44.20;;
45478;Laerm;31227;47.986;11.868;2023-03-14T04:03:35;39.18;36.69;42.35;;
45478;Laerm;31227;47.986;11.868;2023-03-14T04:06:04;39.06;36.91;43.24;;
45478;Laerm;31227;47.986;11.868;2023-03-14T04:08:30;39.49;36.91;46.76;;
45478;Laerm;31227;47.986;11.868;2023-03-14T04:10:56;39.19;36.45;41.75;;
45478;Laerm;31227;47.986;11.868;2023-03-14T05:37:04;40.11;36.91;43.54;;
45478;Laerm;31227;47.986;11.868;2023-03-14T05:39:30;39.93;36.91;46.62;;
45478;Laerm;31227;47.986;11.868;2023-03-14T05:41:55;40.28;36.69;45.45;;
45478;Laerm;31227;47.986;11.868;2023-03-14T05:44:20;40.29;36.69;45.01;;
45478;Laerm;31227;47.986;11.868;2023-03-14T05:46:46;40.03;36.91;44.39;;
45478;Laerm;31227;47.986;11.868;2023-03-14T05:49:11;40.69;37.32;47.06;;
45478;Laerm;31227;47.986;11.868;2023-03-14T05:51:36;39.75;36.45;42.53;;
45478;Laerm;31227;47.986;11.868;2023-03-14T05:54:01;40.19;36.91;45.80;;
45478;Laerm;31227;47.986;11.868;2023-03-14T05:56:27;39.50;36.69;43.29;;
45478;Laerm;31227;47.986;11.868;2023-03-14T05:58:52;40.36;37.12;48.23;;
45478;Laerm;31227;47.986;11.868;2023-03-14T06:01:17;39.64;37.32;42.93;;
45478;Laerm;31227;47.986;11.868;2023-03-14T06:03:42;40.52;36.69;47.60;;
45478;Laerm;31227;47.986;11.868;2023-03-14T06:06:07;40.18;36.91;46.28;;
45478;Laerm;31227;47.986;11.868;2023-03-14T06:08:33;39.94;36.56;44.80;;
45478;Laerm;31227;47.986;11.868;2023-03-14T06:10:59;39.67;36.69;43.39;;
45478;Laerm;31227;47.986;11.868;2023-03-14T08:15:33;39.11;36.45;42.71;;
45478;Laerm;31227;47.986;11.868;2023-03-14T08:17:58;39.15;36.91;43.72;;
45478;Laerm;31227;47.986;11.868;2023-03-14T08:20:25;39.42;36.69;45.60;;
45478;Laerm;31227;47.986;11.868;2023-03-14T08:22:51;39.16;36.45;42.47;;
45478;Laerm;31227;47.986;11.868;2023-03-14T08:25:16;39.42;36.45;44.65;;
45478;Laerm;31227;47.986;11.868;2023-03-14T08:27:42;38.91;36.91;41.82;;
45478;Laerm;31227;47.986;11.868;2023-03-14T08:30:08;39.04;37.12;43.90;;
45478;Laerm;31227;47.986;11.868;2023-03-14T08:32:34;38.87;36.69;42.98;;
45478;Laerm;31227;47.986;11.868;2023-03-14T08:34:59;39.01;36.69;42.71;;
45478;Laerm;31227;47.986;11.868;2023-03-14T08:37:24;39.23;36.69;44.83;;
45478;Laerm;31227;47.986;11.868;2023-03-14T08:39:50;39.25;37.12;44.58;;
45478;Laerm;31227;47.986;11.868;2023-03-14T08:42:15;39.01;36.20;43.29;;
45478;Laerm;31227;47.986;11.868;2023-03-14T08:44:40;39.05;36.91;43.77;;
45478;Laerm;31227;47.986;11.868;2023-03-14T08:47:05;38.86;36.91;44.31;;
45478;Laerm;31227;47.986;11.868;2023-03-14T08:49:30;38.99;36.91;42.22;;
45478;Laerm;31227;47.986;11.868;2023-03-14T08:51:56;39.20;37.12;43.58;;
45478;Laerm;31227;47.986;11.868;2023-03-14T08:54:21;38.84;36.45;41.14;;
45478;Laerm;31227;47.986;11.868;2023-03-14T08:56:47;39.10;36.56;44.03;;
45478;Laerm;31227;47.986;11.868;2023-03-14T08:59:12;38.91;36.20;42.29;;
45478;Laerm;31227;47.986;11.868;2023-03-14T09:01:37;38.99;36.69;44.58;;
45478;Laerm;31227;47.986;11.868;2023-03-14T09:04:03;38.86;36.45;41.06;;
45478;Laerm;31227;47.986;11.868;2023-03-14T09:06:28;38.84;36.45;40.89;;
45478;Laerm;31227;47.986;11.868;2023-03-14T09:08:53;39.22;36.45;44.62;;
45478;Laerm;31227;47.986;11.868;2023-03-14T09:11:18;39.19;36.91;47.50;;
45478;Laerm;31227;47.986;11.868;2023-03-14T09:13:44;39.06;36.77;44.43;;
45478;Laerm;31227;47.986;11.868;2023-03-14T09:16:09;39.06;36.20;44.07;;
45478;Laerm;31227;47.986;11.868;2023-03-14T09:18:34;38.87;36.45;46.64;;
45478;Laerm;31227;47.986;11.868;2023-03-14T09:20:59;39.28;36.69;43.63;;
45478;Laerm;31227;47.986;11.868;2023-03-14T09:23:25;39.07;36.45;42.65;;
45478;Laerm;31227;47.986;11.868;2023-03-14T09:25:56;39.48;36.45;50.91;;
45478;Laerm;31227;47.986;11.868;2023-03-14T09:28:22;39.07;36.20;43.72;;
45478;Laerm;31227;47.986;11.868;2023-03-14T09:30:47;38.86;36.45;41.96;;
45478;Laerm;31227;47.986;11.868;2023-03-14T09:33:12;39.08;36.20;43.99;;
45478;Laerm;31227;47.986;11.868;2023-03-14T09:35:37;39.11;36.20;46.78;;
45478;Laerm;31227;47.986;11.868;2023-03-14T09:38:03;39.33;35.94;43.81;;
45478;Laerm;31227;47.986;11.868;2023-03-14T09:40:31;39.36;36.20;45.14;;
45478;Laerm;31227;47.986;11.868;2023-03-14T09:42:56;39.06;36.69;42.41;;
45478;Laerm;31227;47.986;11.868;2023-03-14T09:45:34;39.24;36.91;43.19;;
45478;Laerm;31227;47.986;11.868;2023-03-14T09:48:00;39.34;36.45;44.69;;
45478;Laerm;31227;47.986;11.868;2023-03-14T09:50:26;39.40;36.45;48.12;;
45478;Laerm;31227;47.986;11.868;2023-03-14T09:53:03;39.19;37.12;42.71;;
45478;Laerm;31227;47.986;11.868;2023-03-14T09:55:29;39.12;36.69;42.53;;
45478;Laerm;31227;47.986;11.868;2023-03-14T09:57:56;39.49;37.12;47.18;;
45478;Laerm;31227;47.986;11.868;2023-03-14T10:00:24;39.34;36.69;43.86;;
45478;Laerm;31227;47.986;11.868;2023-03-14T10:03:04;39.35;36.69;42.98;;
45478;Laerm;31227;47.986;11.868;2023-03-14T10:05:38;39.15;37.12;42.22;;
45478;Laerm;31227;47.986;11.868;2023-03-14T10:08:03;39.51;36.69;44.80;;
45478;Laerm;31227;47.986;11.868;2023-03-14T10:10:29;39.19;36.69;42.88;;
45478;Laerm;31227;47.986;11.868;2023-03-14T10:18:18;39.61;36.69;45.20;;
45478;Laerm;31227;47.986;11.868;2023-03-14T10:20:45;39.54;36.45;45.43;;
45478;Laerm;31227;47.986;11.868;2023-03-14T10:25:37;39.35;37.12;43.72;;
45478;Laerm;31227;47.986;11.868;2023-03-14T10:28:10;39.10;36.91;42.88;;
45478;Laerm;31227;47.986;11.868;2023-03-14T10:30:40;39.38;36.20;44.65;;
45478;Laerm;31227;47.986;11.868;2023-03-14T10:35:36;39.50;35.94;45.48;;
45478;Laerm;31227;47.986;11.868;2023-03-14T10:38:02;39.83;36.45;45.77;;
45478;Laerm;31227;47.986;11.868;2023-03-14T10:40:32;39.45;35.36;42.82;;
45478;Laerm;31227;47.986;11.868;2023-03-14T10:42:58;39.30;35.94;47.32;;
45478;Laerm;31227;47.986;11.868;2023-03-14T10:45:31;39.37;35.94;43.05;;
45478;Laerm;31227;47.986;11.868;2023-03-14T10:47:58;39.71;35.66;45.39;;
45478;Laerm;31227;47.986;11.868;2023-03-14T10:50:28;39.70;36.45;43.24;;
45478;Laerm;31227;47.986;11.868;2023-03-14T10:52:53;47.89;36.34;72.29;;
45478;Laerm;31227;47.986;11.868;2023-03-14T10:55:19;40.72;35.66;46.23;;
45478;Laerm;31227;47.986;11.868;2023-03-14T10:57:44;40.32;36.45;46.18;;
45478;Laerm;31227;47.986;11.868;2023-03-14T11:05:42;40.16;36.91;43.72;;
45478;Laerm;31227;47.986;11.868;2023-03-14T11:08:14;40.37;36.69;46.40;;
45478;Laerm;31227;47.986;11.868;2023-03-14T11:10:42;40.35;37.12;47.04;;
45478;Laerm;31227;47.986;11.868;2023-03-14T11:15:34;40.29;36.69;48.73;;
45478;Laerm;31227;47.986;11.868;2023-03-14T11:18:10;40.30;36.91;45.40;;
45478;Laerm;31227;47.986;11.868;2023-03-14T11:25:45;40.34;36.69;44.87;;
45478;Laerm;31227;47.986;11.868;2023-03-14T11:28:35;40.22;36.20;44.62;;
45478;Laerm;31227;47.986;11.868;2023-03-14T11:31:20;40.09;36.77;43.58;;
45478;Laerm;31227;47.986;11.868;2023-03-14T11:34:05;40.35;36.91;49.21;;
45478;Laerm;31227;47.986;11.868;2023-03-14T11:36:44;40.47;36.20;46.30;;
45478;Laerm;31227;47.986;11.868;2023-03-14T11:39:12;40.54;36.91;47.20;;
45478;Laerm;31227;47.986;11.868;2023-03-14T11:41:42;40.84;37.32;51.88;;
45478;Laerm;31227;47.986;11.868;2023-03-14T11:44:14;40.60;37.32;45.39;;
45478;Laerm;31227;47.986;11.868;2023-03-14T11:46:42;40.66;37.12;44.73;;
45478;Laerm;31227;47.986;11.868;2023-03-14T11:51:47;40.25;36.45;44.03;;
45478;Laerm;31227;47.986;11.868;2023-03-14T11:56:45;40.65;36.20;45.42;;
45478;Laerm;31227;47.986;11.868;2023-03-14T11:59:14;40.95;36.69;48.42;;
45478;Laerm;31227;47.986;11.868;2023-03-14T12:01:54;40.42;35.94;46.59;;
45478;Laerm;31227;47.986;11.868;2023-03-14T12:06:50;40.77;37.32;46.20;;
45478;Laerm;31227;47.986;11.868;2023-03-14T12:09:16;39.93;36.45;46.28;;
45478;Laerm;31227;47.986;11.868;2023-03-14T12:16:45;40.12;36.45;46.02;;
45478;Laerm;31227;47.986;11.868;2023-03-14T12:21:49;40.34;36.20;45.69;;
45478;Laerm;31227;47.986;11.868;2023-03-14T12:24:19;40.58;36.34;45.94;;
45478;Laerm;31227;47.986;11.868;2023-03-14T12:26:54;40.43;35.66;45.80;;
45478;Laerm;31227;47.986;11.868;2023-03-14T12:29:20;40.27;36.45;43.81;;
45478;Laerm;31227;47.986;11.868;2023-03-14T12:31:46;40.66;36.20;55.18;;
45478;Laerm;31227;47.986;11.868;2023-03-14T12:41:50;41.93;37.52;56.85;;
45478;Laerm;31227;47.986;11.868;2023-03-14T12:46:53;40.54;35.66;54.88;;
45478;Laerm;31227;47.986;11.868;2023-03-14T12:49:18;40.86;36.20;54.43;;
45478;Laerm;31227;47.986;11.868;2023-03-14T12:51:44;40.51;36.20;49.72;;
45478;Laerm;31227;47.986;11.868;2023-03-14T12:57:03;40.59;36.45;49.32;;
45478;Laerm;31227;47.986;11.868;2023-03-14T12:59:35;45.82;39.21;54.98;;
45478;Laerm;31227;47.986;11.868;2023-03-14T13:07:00;41.51;37.12;52.36;;
45478;Laerm;31227;47.986;11.868;2023-03-14T13:11:55;41.36;36.91;49.12;;
45478;Laerm;31227;47.986;11.868;2023-03-14T13:14:21;41.30;36.69;57.37;;
45478;Laerm;31227;47.986;11.868;2023-03-14T13:16:47;41.41;37.32;53.75;;
45478;Laerm;31227;47.986;11.868;2023-03-14T13:19:19;42.58;37.12;50.55;;
45478;Laerm;31227;47.986;11.868;2023-03-14T13:21:46;44.14;37.12;59.69;;
45478;Laerm;31227;47.986;11.868;2023-03-14T13:24:25;43.51;37.88;52.56;;
45478;Laerm;31227;47.986;11.868;2023-03-14T13:26:51;41.53;36.69;50.99;;
45478;Laerm;31227;47.986;11.868;2023-03-14T13:31:50;41.24;37.12;58.16;;
45478;Laerm;31227;47.986;11.868;2023-03-14T13:34:16;41.71;37.12;56.09;;
45478;Laerm;31227;47.986;11.868;2023-03-14T13:36:41;40.63;36.69;50.12;;
45478;Laerm;31227;47.986;11.868;2023-03-14T13:39:10;40.78;36.91;49.44;;
45478;Laerm;31227;47.986;11.868;2023-03-14T13:41:37;42.04;36.91;59.92;;
45478;Laerm;31227;47.986;11.868;2023-03-14T13:44:13;40.73;36.45;57.14;;
45478;Laerm;31227;47.986;11.868;2023-03-14T13:46:39;43.50;37.12;62.28;;
45478;Laerm;31227;47.986;11.868;2023-03-14T13:49:05;41.85;36.91;55.53;;
45478;Laerm;31227;47.986;11.868;2023-03-14T13:51:31;43.39;36.45;65.54;;
45478;Laerm;31227;47.986;11.868;2023-03-14T13:54:00;44.34;37.12;64.72;;
45478;Laerm;31227;47.986;11.868;2023-03-14T13:56:31;43.32;37.52;63.85;;
45478;Laerm;31227;47.986;11.868;2023-03-14T13:58:56;40.87;37.12;60.36;;
45478;Laerm;31227;47.986;11.868;2023-03-14T14:01:26;41.93;36.91;59.54;;
45478;Laerm;31227;47.986;11.868;2023-03-14T14:03:53;41.53;37.12;59.66;;
45478;Laerm;31227;47.986;11.868;2023-03-14T14:06:33;52.50;37.52;76.38;;
45478;Laerm;31227;47.986;11.868;2023-03-14T14:09:00;43.22;37.52;66.89;;
45478;Laerm;31227;47.986;11.868;2023-03-14T14:14:06;43.33;37.12;63.55;;
45478;Laerm;31227;47.986;11.868;2023-03-14T14:16:33;42.42;37.32;61.12;;
45478;Laerm;31227;47.986;11.868;2023-03-14T14:18:58;42.44;37.12;60.76;;
45478;Laerm;31227;47.986;11.868;2023-03-14T14:21:25;42.27;37.88;60.61;;
45478;Laerm;31227;47.986;11.868;2023-03-14T14:23:50;41.63;36.91;61.11;;
45478;Laerm;31227;47.986;11.868;2023-03-14T14:26:16;40.74;37.32;52.37;;
45478;Laerm;31227;47.986;11.868;2023-03-14T14:28:43;40.75;36.91;49.18;;
45478;Laerm;31227;47.986;11.868;2023-03-14T14:31:18;41.01;36.69;49.12;;
45478;Laerm;31227;47.986;11.868;2023-03-14T14:34:17;40.62;37.12;57.44;;
45478;Laerm;31227;47.986;11.868;2023-03-14T14:36:36;41.14;37.32;50.82;;
45478;Laerm;31227;47.986;11.868;2023-03-14T14:39:11;41.12;36.45;57.97;;
45478;Laerm;31227;47.986;11.868;2023-03-14T14:41:40;42.40;37.32;71.41;;
45478;Laerm;31227;47.986;11.868;2023-03-14T14:44:06;41.44;37.32;52.83;;
45478;Laerm;31227;47.986;11.868;2023-03-14T14:46:33;42.77;37.52;62.71;;
45478;Laerm;31227;47.986;11.868;2023-03-14T14:49:02;42.95;37.70;65.26;;
45478;Laerm;31227;47.986;11.868;2023-03-14T14:51:33;44.29;38.21;63.98;;
45478;Laerm;31227;47.986;11.868;2023-03-14T14:56:51;50.96;36.91;84.24;;
45478;Laerm;31227;47.986;11.868;2023-03-14T14:59:23;51.67;36.91;85.48;;
45478;Laerm;31227;47.986;11.868;2023-03-14T15:01:49;48.22;35.36;81.73;;
45478;Laerm;31227;47.986;11.868;2023-03-14T15:04:16;53.47;35.94;88.55;;
45478;Laerm;31227;47.986;11.868;2023-03-14T15:06:45;44.80;33.44;71.50;;
45478;Laerm;31227;47.986;11.868;2023-03-14T15:09:11;47.97;32.35;82.61;;
45478;Laerm;31227;47.986;11.868;2023-03-14T15:11:37;41.13;30.89;65.54;;
45478;Laerm;31227;47.986;11.868;2023-03-14T16:23:50;39.61;35.36;46.07;;
45478;Laerm;31227;47.986;11.868;2023-03-14T16:26:17;39.23;35.36;46.93;;
45478;Laerm;31227;47.986;11.868;2023-03-14T16:28:43;40.39;35.36;65.51;;
45478;Laerm;31227;47.986;11.868;2023-03-14T16:31:10;39.71;35.94;53.60;;
45478;Laerm;31227;47.986;11.868;2023-03-14T16:33:36;39.85;35.36;55.94;;
45478;Laerm;31227;47.986;11.868;2023-03-14T16:36:02;40.38;36.45;53.80;;
45478;Laerm;31227;47.986;11.868;2023-03-14T16:38:43;40.23;35.66;54.93;;
45478;Laerm;31227;47.986;11.868;2023-03-14T16:41:12;40.39;36.45;55.01;;
45478;Laerm;31227;47.986;11.868;2023-03-14T16:43:38;40.09;36.45;51.26;;
45478;Laerm;31227;47.986;11.868;2023-03-14T16:46:05;40.64;36.45;55.52;;
45478;Laerm;31227;47.986;11.868;2023-03-14T16:48:30;40.68;36.45;57.27;;
45478;Laerm;31227;47.986;11.868;2023-03-14T16:50:55;40.41;37.12;56.10;;
45478;Laerm;31227;47.986;11.868;2023-03-14T16:53:21;41.66;36.91;64.78;;
45478;Laerm;31227;47.986;11.868;2023-03-14T16:55:48;40.78;37.12;51.45;;
45478;Laerm;31227;47.986;11.868;2023-03-14T16:58:13;41.29;37.32;66.08;;
45478;Laerm;31227;47.986;11.868;2023-03-14T17:00:38;40.79;37.32;55.50;;
45478;Laerm;31227;47.986;11.868;2023-03-14T17:03:04;40.74;36.45;60.57;;
45478;Laerm;31227;47.986;11.868;2023-03-14T17:05:30;40.27;37.12;50.22;;
45478;Laerm;31227;47.986;11.868;2023-03-14T17:07:55;40.41;37.12;53.96;;
45478;Laerm;31227;47.986;11.868;2023-03-14T17:10:21;40.20;36.91;45.91;;
45478;Laerm;31227;47.986;11.868;2023-03-14T17:12:46;40.57;37.32;52.98;;
45478;Laerm;31227;47.986;11.868;2023-03-14T17:15:11;40.19;36.69;48.80;;
45478;Laerm;31227;47.986;11.868;2023-03-14T17:17:36;40.31;37.12;50.25;;
45478;Laerm;31227;47.986;11.868;2023-03-14T17:20:02;40.50;37.12;47.95;;
45478;Laerm;31227;47.986;11.868;2023-03-14T17:22:28;40.47;36.69;50.29;;
45478;Laerm;31227;47.986;11.868;2023-03-14T17:24:53;40.18;36.20;44.65;;
45478;Laerm;31227;47.986;11.868;2023-03-14T17:27:18;40.37;37.12;48.88;;
45478;Laerm;31227;47.986;11.868;2023-03-14T17:29:45;40.21;36.69;52.78;;
45478;Laerm;31227;47.986;11.868;2023-03-14T17:32:14;40.92;37.32;54.79;;
45478;Laerm;31227;47.986;11.868;2023-03-14T17:34:40;40.06;37.12;44.11;;
45478;Laerm;31227;47.986;11.868;2023-03-14T17:37:06;40.01;36.45;45.48;;
45478;Laerm;31227;47.986;11.868;2023-03-14T17:39:31;41.44;36.91;58.60;;
45478;Laerm;31227;47.986;11.868;2023-03-14T17:41:56;40.31;36.69;54.89;;
45478;Laerm;31227;47.986;11.868;2023-03-14T17:44:21;40.12;37.12;48.98;;
45478;Laerm;31227;47.986;11.868;2023-03-14T17:46:47;40.32;36.91;52.04;;
45478;Laerm;31227;47.986;11.868;2023-03-14T17:49:13;40.09;36.56;46.28;;
45478;Laerm;31227;47.986;11.868;2023-03-14T17:51:38;40.29;36.91;53.00;;
45478;Laerm;31227;47.986;11.868;2023-03-14T17:54:04;40.01;36.77;50.15;;
45478;Laerm;31227;47.986;11.868;2023-03-14T17:56:29;40.03;36.91;43.63;;
45478;Laerm;31227;47.986;11.868;2023-03-14T17:58:55;40.26;36.91;44.23;;
45478;Laerm;31227;47.986;11.868;2023-03-14T18:01:20;40.13;36.91;43.39;;
45478;Laerm;31227;47.986;11.868;2023-03-14T18:03:46;40.29;36.91;46.64;;
45478;Laerm;31227;47.986;11.868;2023-03-14T18:06:12;40.14;36.69;43.63;;
45478;Laerm;31227;47.986;11.868;2023-03-14T18:08:38;40.10;37.52;43.72;;
45478;Laerm;31227;47.986;11.868;2023-03-14T18:11:06;40.31;36.91;43.86;;
45478;Laerm;31227;47.986;11.868;2023-03-14T18:16:07;40.25;36.45;43.68;;
45478;Laerm;31227;47.986;11.868;2023-03-14T18:18:33;39.94;37.12;43.44;;
45478;Laerm;31227;47.986;11.868;2023-03-14T18:20:58;40.08;36.91;47.16;;
45478;Laerm;31227;47.986;11.868;2023-03-14T18:23:23;40.11;37.12;44.23;;
45478;Laerm;31227;47.986;11.868;2023-03-14T18:25:49;39.82;36.69;45.33;;
45478;Laerm;31227;47.986;11.868;2023-03-14T18:28:15;40.17;37.32;43.09;;
45478;Laerm;31227;47.986;11.868;2023-03-14T18:30:41;39.84;36.69;43.94;;
45478;Laerm;31227;47.986;11.868;2023-03-14T18:33:06;39.96;37.12;45.04;;
45478;Laerm;31227;47.986;11.868;2023-03-14T18:35:31;39.94;36.91;44.39;;
45478;Laerm;31227;47.986;11.868;2023-03-14T18:37:56;39.98;37.12;43.77;;
45478;Laerm;31227;47.986;11.868;2023-03-14T18:40:21;40.17;37.12;44.97;;
45478;Laerm;31227;47.986;11.868;2023-03-14T18:42:47;39.96;37.12;42.93;;
45478;Laerm;31227;47.986;11.868;2023-03-14T18:45:12;39.80;35.66;44.27;;
45478;Laerm;31227;47.986;11.868;2023-03-14T18:47:37;39.80;36.45;43.77;;
45478;Laerm;31227;47.986;11.868;2023-03-14T18:50:03;39.75;36.69;42.65;;
45478;Laerm;31227;47.986;11.868;2023-03-14T18:52:28;39.75;36.69;50.51;;
45478;Laerm;31227;47.986;11.868;2023-03-14T18:54:54;39.78;36.91;43.51;;
45478;Laerm;31227;47.986;11.868;2023-03-14T18:57:19;39.76;36.91;46.15;;
45478;Laerm;31227;47.986;11.868;2023-03-14T18:59:46;39.98;37.12;47.26;;
45478;Laerm;31227;47.986;11.868;2023-03-14T19:02:11;39.92;37.32;51.03;;
45478;Laerm;31227;47.986;11.868;2023-03-14T19:04:36;39.75;37.12;42.82;;
45478;Laerm;31227;47.986;11.868;2023-03-14T19:07:01;39.87;36.91;44.15;;
45478;Laerm;31227;47.986;11.868;2023-03-14T19:09:27;39.90;37.12;45.17;;
45478;Laerm;31227;47.986;11.868;2023-03-14T19:11:53;39.86;36.34;46.02;;
45478;Laerm;31227;47.986;11.868;2023-03-14T19:14:18;39.53;36.91;43.44;;
45478;Laerm;31227;47.986;11.868;2023-03-14T19:16:44;39.80;36.69;44.11;;
45478;Laerm;31227;47.986;11.868;2023-03-14T19:19:10;40.00;36.91;44.39;;
45478;Laerm;31227;47.986;11.868;2023-03-14T19:21:35;39.98;36.91;43.77;;
45478;Laerm;31227;47.986;11.868;2023-03-14T19:24:01;39.85;37.12;44.07;;
45478;Laerm;31227;47.986;11.868;2023-03-14T19:26:27;39.72;36.45;43.54;;